Time;durP1;ratioP1;P1;durP2;ratioP2;P2;SDS_P1;SDS_P2;PMS_P1;PMS_P2;Temp;Humidity;BMP_temperature;BMP_pressure;BME280_temperature;BME280_humidity;BME280_pressure;Samples;Min_cycle;Max_cycle;Signal;HPM_P1;HPM_P2
2022/12/24 00:02:00;;;;;;;1.27;0.50;;;13.00;88.10;;;;;;4972960;28;20038;-60
2022/12/24 00:04:26;;;;;;;0.60;0.50;;;12.90;88.10;;;;;;4981111;28;20034;-62
2022/12/24 00:06:52;;;;;;;0.98;0.50;;;12.90;88.10;;;;;;4979769;28;20030;-61
2022/12/24 00:09:17;;;;;;;0.68;0.60;;;12.80;88.10;;;;;;4981963;28;20042;-63
2022/12/24 00:11:43;;;;;;;1.25;0.65;;;12.90;88.20;;;;;;4974560;28;20102;-61
2022/12/24 00:14:08;;;;;;;2.17;0.77;;;12.80;88.30;;;;;;4977434;28;20038;-61
2022/12/24 00:16:34;;;;;;;0.60;0.60;;;12.80;88.40;;;;;;4979034;28;20049;-62
2022/12/24 00:19:00;;;;;;;2.03;0.60;;;12.80;88.50;;;;;;4984068;28;20034;-63
2022/12/24 00:21:25;;;;;;;2.00;0.52;;;12.80;88.60;;;;;;4977290;28;20553;-60
2022/12/24 00:23:51;;;;;;;3.05;0.70;;;12.80;88.70;;;;;;4981335;28;20037;-62
2022/12/24 00:26:16;;;;;;;0.65;0.57;;;12.80;88.80;;;;;;4978482;28;20069;-62
2022/12/24 00:28:42;;;;;;;0.77;0.50;;;12.80;88.80;;;;;;4980578;28;20038;-62
2022/12/24 00:31:13;;;;;;;1.42;0.70;;;12.80;88.80;;;;;;4978290;28;20398;-63
2022/12/24 00:33:39;;;;;;;1.00;0.80;;;12.80;88.90;;;;;;4982782;28;20565;-62
2022/12/24 00:36:05;;;;;;;2.58;0.68;;;12.80;88.80;;;;;;4976463;28;20054;-61
2022/12/24 00:38:31;;;;;;;1.33;0.40;;;12.80;88.90;;;;;;4975533;28;20042;-62
2022/12/24 00:41:00;;;;;;;1.48;0.68;;;12.80;89.00;;;;;;4979171;28;20092;-63
2022/12/24 00:43:27;;;;;;;0.60;0.60;;;12.80;88.90;;;;;;4988869;28;20450;-60
2022/12/24 00:45:53;;;;;;;1.42;0.80;;;12.80;89.00;;;;;;4982081;28;20442;-62
2022/12/24 00:48:18;;;;;;;1.35;0.70;;;12.80;89.20;;;;;;4987254;28;20043;-61
2022/12/24 00:50:44;;;;;;;0.88;0.70;;;12.80;89.20;;;;;;4985341;28;20226;-61
2022/12/24 00:53:10;;;;;;;1.75;0.82;;;12.80;89.30;;;;;;4984845;28;20034;-60
2022/12/24 00:55:36;;;;;;;4.35;0.77;;;12.80;89.40;;;;;;4977566;28;20043;-62
2022/12/24 00:58:01;;;;;;;0.75;0.60;;;12.70;89.30;;;;;;4975699;28;20045;-62
2022/12/24 01:00:27;;;;;;;1.67;0.60;;;12.70;89.40;;;;;;4976878;28;20245;-61
2022/12/24 01:02:53;;;;;;;2.63;0.70;;;12.70;89.40;;;;;;4976628;28;20039;-62
2022/12/24 01:05:19;;;;;;;1.75;0.60;;;12.70;89.50;;;;;;4982131;28;20567;-60
2022/12/24 01:07:46;;;;;;;1.60;0.75;;;12.70;89.50;;;;;;4982564;28;20042;-60
2022/12/24 01:10:13;;;;;;;0.65;0.57;;;12.70;89.50;;;;;;4983215;28;20042;-61
2022/12/24 01:12:39;;;;;;;1.83;0.60;;;12.70;89.50;;;;;;4973851;28;20124;-61
2022/12/24 01:15:05;;;;;;;1.83;0.60;;;12.70;89.50;;;;;;4981310;28;20098;-62
2022/12/24 01:17:32;;;;;;;2.17;0.93;;;12.70;89.50;;;;;;4979927;28;21000;-61
2022/12/24 01:19:58;;;;;;;1.20;0.60;;;12.70;89.40;;;;;;4977321;28;20046;-59
2022/12/24 01:22:23;;;;;;;2.30;0.73;;;12.70;89.30;;;;;;4980886;28;20038;-61
2022/12/24 01:24:49;;;;;;;1.38;0.68;;;12.70;89.20;;;;;;4983736;28;20082;-62
2022/12/24 01:27:14;;;;;;;2.25;0.70;;;12.60;89.10;;;;;;4979462;28;20496;-63
2022/12/24 01:29:40;;;;;;;2.10;0.70;;;12.70;89.10;;;;;;4978739;28;20074;-62
2022/12/24 01:32:06;;;;;;;2.40;1.30;;;12.60;88.90;;;;;;4979695;28;20034;-62
2022/12/24 01:34:31;;;;;;;1.15;0.82;;;12.60;88.80;;;;;;4977285;28;20302;-62
2022/12/24 01:36:57;;;;;;;1.52;0.57;;;12.60;88.80;;;;;;4972470;28;20034;-60
2022/12/24 01:39:22;;;;;;;1.45;0.50;;;12.60;89.50;;;;;;4974802;28;20061;-61
2022/12/24 01:44:35;;;;;;;0.82;0.55;;;12.60;89.40;;;;;;4977886;28;20496;-62
2022/12/24 01:47:09;;;;;;;2.75;0.60;;;12.60;88.40;;;;;;4980323;28;20035;-61
2022/12/24 01:49:36;;;;;;;4.43;0.90;;;12.60;88.30;;;;;;4978307;28;20494;-62
2022/12/24 01:52:11;;;;;;;1.40;0.57;;;12.50;88.10;;;;;;4978277;28;20085;-60
2022/12/24 01:54:43;;;;;;;1.45;0.70;;;12.50;87.90;;;;;;4983133;28;20045;-62
2022/12/24 01:57:16;;;;;;;1.73;0.73;;;12.50;87.90;;;;;;4974237;28;20126;-62
2022/12/24 01:59:45;;;;;;;2.67;0.65;;;12.40;87.60;;;;;;4980181;28;20042;-63
2022/12/24 02:02:11;;;;;;;0.90;0.50;;;12.40;87.60;;;;;;4976663;28;20524;-63
2022/12/24 02:04:41;;;;;;;1.60;0.60;;;12.40;87.50;;;;;;4975340;28;20585;-62
2022/12/24 02:07:07;;;;;;;1.58;0.60;;;12.40;87.40;;;;;;4982269;28;20044;-63
2022/12/24 02:09:34;;;;;;;1.38;0.60;;;12.40;87.40;;;;;;4983774;28;20022;-61
2022/12/24 02:12:00;;;;;;;1.00;0.60;;;12.30;87.40;;;;;;4976823;28;20522;-62
2022/12/24 02:14:27;;;;;;;0.70;0.70;;;12.30;87.30;;;;;;4974760;28;20038;-62
2022/12/24 02:17:30;;;;;;;1.77;0.80;;;12.30;87.30;;;;;;4975259;28;20109;-61
2022/12/24 02:20:29;;;;;;;3.90;0.70;;;12.30;86.70;;;;;;4981940;28;20453;-60
2022/12/24 02:23:13;;;;;;;3.33;0.57;;;12.20;86.70;;;;;;4983237;28;20038;-61
2022/12/24 02:25:54;;;;;;;1.03;0.60;;;12.20;87.10;;;;;;4981410;28;20493;-62
2022/12/24 02:28:44;;;;;;;1.88;0.60;;;12.20;86.70;;;;;;4982718;28;20129;-62
2022/12/24 02:31:28;;;;;;;2.78;0.60;;;12.20;86.40;;;;;;4977346;28;20039;-62
2022/12/24 02:34:02;;;;;;;3.70;0.77;;;12.10;86.50;;;;;;4981538;28;20105;-61
2022/12/24 02:36:33;;;;;;;2.35;0.70;;;12.10;86.70;;;;;;4983118;28;20095;-62
2022/12/24 02:39:11;;;;;;;4.78;0.70;;;12.10;86.70;;;;;;4984214;28;20042;-62
2022/12/24 02:44:30;;;;;;;2.17;0.60;;;12.10;86.60;;;;;;4981249;28;20053;-62
2022/12/24 02:46:57;;;;;;;1.38;0.65;;;12.10;86.80;;;;;;4982237;28;20038;-61
2022/12/24 02:49:23;;;;;;;1.77;0.50;;;12.10;86.90;;;;;;4983148;28;20053;-61
2022/12/24 02:51:49;;;;;;;1.65;0.80;;;12.10;87.00;;;;;;4981433;28;20062;-62
2022/12/24 02:54:15;;;;;;;3.83;0.90;;;12.10;87.00;;;;;;4980453;28;20379;-61
2022/12/24 02:56:49;;;;;;;2.72;0.70;;;12.00;86.90;;;;;;4981925;28;20105;-62
2022/12/24 02:59:25;;;;;;;3.47;0.73;;;12.10;86.90;;;;;;4982041;28;20045;-61
2022/12/24 03:02:03;;;;;;;3.00;0.70;;;12.10;87.00;;;;;;4980830;28;20074;-61
2022/12/24 03:04:50;;;;;;;2.70;0.73;;;12.10;87.00;;;;;;4985222;28;20034;-60
2022/12/24 03:07:57;;;;;;;3.05;0.82;;;12.10;86.90;;;;;;4981930;28;20038;-62
2022/12/24 03:10:32;;;;;;;3.47;0.90;;;12.10;86.80;;;;;;4982678;28;20118;-61
2022/12/24 03:13:03;;;;;;;2.55;0.80;;;12.10;87.00;;;;;;4977747;28;20042;-62
2022/12/24 03:15:31;;;;;;;2.28;0.80;;;12.10;87.00;;;;;;4981559;28;20034;-62
2022/12/24 03:18:00;;;;;;;2.67;0.60;;;12.10;87.00;;;;;;4983431;28;20038;-62
2022/12/24 03:20:34;;;;;;;2.72;0.82;;;12.10;87.00;;;;;;4985453;28;20173;-62
2022/12/24 03:23:00;;;;;;;2.38;0.77;;;12.10;86.90;;;;;;4983359;28;20387;-60
2022/12/24 03:25:26;;;;;;;2.25;0.88;;;12.10;87.00;;;;;;4987821;28;20118;-59
2022/12/24 03:27:55;;;;;;;3.47;0.80;;;12.10;87.00;;;;;;4985364;28;20411;-62
2022/12/24 03:30:21;;;;;;;2.58;0.82;;;12.10;87.00;;;;;;4986506;28;20038;-62
2022/12/24 03:32:47;;;;;;;3.38;0.85;;;12.10;87.00;;;;;;4982934;28;20034;-59
2022/12/24 03:35:13;;;;;;;2.40;0.73;;;12.10;86.90;;;;;;4985893;28;20092;-62
2022/12/24 03:37:39;;;;;;;3.13;0.82;;;12.10;86.90;;;;;;4984577;28;20034;-61
2022/12/24 03:40:05;;;;;;;3.20;0.90;;;12.10;86.90;;;;;;4983748;28;20058;-60
2022/12/24 03:42:31;;;;;;;2.67;0.70;;;12.10;86.90;;;;;;4982562;28;20066;-62
2022/12/24 03:44:56;;;;;;;3.20;0.70;;;12.10;86.80;;;;;;4987046;28;20039;-62
2022/12/24 03:47:22;;;;;;;1.33;0.70;;;12.10;86.90;;;;;;4984853;28;20066;-59
2022/12/24 03:49:48;;;;;;;2.83;0.68;;;12.10;86.90;;;;;;4988851;28;20356;-61
2022/12/24 03:52:13;;;;;;;3.03;0.68;;;12.10;86.80;;;;;;4980188;28;20080;-60
2022/12/24 03:54:39;;;;;;;2.38;0.77;;;12.10;86.70;;;;;;4982045;28;20125;-62
2022/12/24 03:57:04;;;;;;;1.55;0.68;;;12.10;86.70;;;;;;4985764;28;20452;-60
2022/12/24 03:59:30;;;;;;;2.00;0.60;;;12.10;86.60;;;;;;4986238;28;20037;-61
2022/12/24 04:01:55;;;;;;;2.28;0.70;;;12.10;86.60;;;;;;4982058;28;20758;-60
2022/12/24 04:04:21;;;;;;;3.05;0.80;;;12.10;86.60;;;;;;4987876;28;20034;-60
2022/12/24 04:06:47;;;;;;;2.92;0.90;;;12.10;86.60;;;;;;4983121;28;20046;-60
2022/12/24 04:09:12;;;;;;;2.75;0.77;;;12.10;86.60;;;;;;4985637;28;20166;-62
2022/12/24 04:11:38;;;;;;;2.60;0.90;;;12.10;86.60;;;;;;4982563;28;20089;-61
2022/12/24 04:14:03;;;;;;;2.70;0.82;;;12.00;86.40;;;;;;4986761;28;20434;-61
2022/12/24 04:16:29;;;;;;;2.67;0.75;;;12.00;86.50;;;;;;4984828;28;20041;-62
2022/12/24 04:18:54;;;;;;;1.83;0.82;;;12.00;86.50;;;;;;4984825;28;20064;-61
2022/12/24 04:21:20;;;;;;;4.47;0.90;;;12.00;86.60;;;;;;4983591;28;20695;-62
2022/12/24 04:23:46;;;;;;;2.47;0.65;;;12.00;86.60;;;;;;4985131;28;20026;-61
2022/12/24 04:26:13;;;;;;;1.40;0.70;;;12.00;86.60;;;;;;4983494;28;20126;-62
2022/12/24 04:28:39;;;;;;;4.47;1.10;;;12.00;86.60;;;;;;4985538;28;20061;-60
2022/12/24 04:31:11;;;;;;;12.35;7.32;;;12.00;86.40;;;;;;4984789;28;20035;-60
2022/12/24 04:33:36;;;;;;;4.65;2.72;;;12.00;86.40;;;;;;4983585;28;20030;-62
2022/12/24 04:36:04;;;;;;;5.70;1.95;;;12.00;86.50;;;;;;4983969;28;20038;-60
2022/12/24 04:38:30;;;;;;;2.25;1.48;;;12.00;86.40;;;;;;4987296;28;20581;-61
2022/12/24 04:41:04;;;;;;;2.67;1.70;;;11.90;86.40;;;;;;4986688;28;20101;-63
2022/12/24 04:43:30;;;;;;;2.67;1.10;;;12.00;86.10;;;;;;4987755;28;20031;-61
2022/12/24 04:45:56;;;;;;;3.38;0.90;;;11.90;86.20;;;;;;4984315;28;20536;-60
2022/12/24 04:48:22;;;;;;;2.85;1.00;;;12.00;86.10;;;;;;4986553;28;20030;-60
2022/12/24 04:50:47;;;;;;;3.35;1.00;;;11.90;86.00;;;;;;4983465;28;20474;-62
2022/12/24 04:53:13;;;;;;;5.43;1.52;;;11.90;86.00;;;;;;4982568;28;20038;-62
2022/12/24 04:55:44;;;;;;;3.55;1.75;;;11.90;85.80;;;;;;4985494;28;20050;-62
2022/12/24 04:58:10;;;;;;;3.03;1.48;;;11.90;85.50;;;;;;4985561;28;20507;-61
2022/12/24 05:00:35;;;;;;;2.67;1.50;;;11.90;85.70;;;;;;4982581;28;20048;-60
2022/12/24 05:03:01;;;;;;;3.90;1.00;;;11.90;85.50;;;;;;4983176;28;20511;-61
2022/12/24 05:05:26;;;;;;;3.10;0.90;;;11.90;85.50;;;;;;4983940;28;20045;-61
2022/12/24 05:07:52;;;;;;;3.80;0.98;;;11.90;85.40;;;;;;4985345;28;20038;-61
2022/12/24 05:10:18;;;;;;;3.28;0.70;;;11.90;85.30;;;;;;4983293;28;20038;-59
2022/12/24 05:12:43;;;;;;;1.83;0.70;;;11.90;85.30;;;;;;4980778;28;20089;-62
2022/12/24 05:15:09;;;;;;;1.73;0.80;;;11.80;85.20;;;;;;4980262;28;20042;-61
2022/12/24 05:17:34;;;;;;;3.78;1.10;;;11.90;85.20;;;;;;4982844;28;20410;-60
2022/12/24 05:20:00;;;;;;;2.60;1.00;;;11.90;85.10;;;;;;4983056;28;20058;-60
2022/12/24 05:27:54;;;;;;;3.30;0.70;;;11.80;84.80;;;;;;4984810;28;20045;-60
2022/12/24 05:30:20;;;;;;;2.88;0.90;;;11.80;84.70;;;;;;4981915;28;20030;-62
2022/12/24 05:32:46;;;;;;;3.42;0.73;;;11.80;84.60;;;;;;4980747;28;20026;-62
2022/12/24 05:35:14;;;;;;;1.80;0.68;;;11.80;84.60;;;;;;4983062;28;20542;-60
2022/12/24 05:37:40;;;;;;;4.20;0.70;;;11.80;84.50;;;;;;4984716;28;20053;-61
2022/12/24 05:40:06;;;;;;;3.05;1.15;;;11.80;84.60;;;;;;4985269;28;20035;-61
2022/12/24 05:42:32;;;;;;;3.47;1.08;;;11.80;84.50;;;;;;4981521;28;20077;-60
2022/12/24 05:44:57;;;;;;;5.22;1.00;;;11.70;84.40;;;;;;4982077;28;20590;-59
2022/12/24 05:47:23;;;;;;;2.67;1.63;;;11.80;84.50;;;;;;4977889;28;20038;-62
2022/12/24 05:49:48;;;;;;;3.65;1.08;;;11.70;84.40;;;;;;4983166;28;20034;-61
2022/12/24 05:52:14;;;;;;;1.65;0.60;;;11.70;84.40;;;;;;4983714;28;20105;-62
2022/12/24 05:54:39;;;;;;;4.47;1.00;;;11.70;84.40;;;;;;4984163;28;20587;-62
2022/12/24 05:57:05;;;;;;;5.60;1.08;;;11.70;84.40;;;;;;4982973;28;20033;-60
2022/12/24 05:59:30;;;;;;;5.63;1.17;;;11.70;84.30;;;;;;4984253;28;20050;-60
2022/12/24 06:01:56;;;;;;;2.60;1.00;;;11.80;84.30;;;;;;4980826;28;20342;-61
2022/12/24 06:04:22;;;;;;;5.75;1.30;;;11.70;84.10;;;;;;4984206;28;20112;-59
2022/12/24 06:06:47;;;;;;;3.25;1.02;;;11.70;84.20;;;;;;4985497;28;20058;-62
2022/12/24 06:09:13;;;;;;;3.85;1.00;;;11.70;84.30;;;;;;4986536;28;20259;-61
2022/12/24 06:11:39;;;;;;;6.55;1.13;;;11.70;84.30;;;;;;4984331;28;20096;-60
2022/12/24 06:14:05;;;;;;;4.43;1.20;;;11.70;84.20;;;;;;4983964;28;20509;-60
2022/12/24 06:16:30;;;;;;;4.75;1.00;;;11.70;84.20;;;;;;4984798;28;20045;-61
2022/12/24 06:18:56;;;;;;;2.40;1.08;;;11.70;84.10;;;;;;4982874;28;20042;-62
2022/12/24 06:21:21;;;;;;;3.75;1.10;;;11.70;84.10;;;;;;4982894;28;20026;-62
2022/12/24 06:23:47;;;;;;;2.30;0.80;;;11.70;84.00;;;;;;4981998;28;20410;-62
2022/12/24 06:26:16;;;;;;;2.97;1.05;;;11.70;84.00;;;;;;4981082;28;20058;-62
2022/12/24 06:28:43;;;;;;;4.32;0.98;;;11.70;83.90;;;;;;4982229;28;20034;-62
2022/12/24 06:31:13;;;;;;;6.22;1.75;;;11.70;83.80;;;;;;4980927;28;20038;-59
2022/12/24 06:33:39;;;;;;;5.30;1.30;;;11.70;83.70;;;;;;4984921;28;20037;-60
2022/12/24 06:36:07;;;;;;;5.00;1.40;;;11.70;83.70;;;;;;4982584;28;20030;-62
2022/12/24 06:38:32;;;;;;;3.97;1.10;;;11.70;83.70;;;;;;4985273;28;20177;-62
2022/12/24 06:40:58;;;;;;;3.83;1.13;;;11.70;83.60;;;;;;4984958;28;20225;-62
2022/12/24 06:43:24;;;;;;;4.00;1.23;;;11.70;83.60;;;;;;4984816;28;20041;-63
2022/12/24 06:45:50;;;;;;;5.53;0.95;;;11.70;83.50;;;;;;4981955;28;20042;-61
2022/12/24 06:48:15;;;;;;;2.83;1.02;;;11.70;83.40;;;;;;4982043;28;20058;-62
2022/12/24 06:50:41;;;;;;;3.97;0.98;;;11.70;83.40;;;;;;4981267;28;20088;-59
2022/12/24 06:53:07;;;;;;;2.85;0.70;;;11.60;83.20;;;;;;4983091;28;20045;-57
2022/12/24 06:55:33;;;;;;;5.38;1.38;;;11.60;83.10;;;;;;4982191;28;20034;-60
2022/12/24 06:57:58;;;;;;;5.20;1.25;;;11.60;82.90;;;;;;4982146;28;20138;-60
2022/12/24 07:00:24;;;;;;;4.65;1.30;;;11.60;82.90;;;;;;4982467;28;20058;-58
2022/12/24 07:02:50;;;;;;;3.42;1.08;;;11.60;82.70;;;;;;4981846;28;20073;-61
2022/12/24 07:05:15;;;;;;;4.07;0.80;;;11.60;82.70;;;;;;4984928;28;20081;-62
2022/12/24 07:07:43;;;;;;;3.78;0.88;;;11.60;82.60;;;;;;4983192;28;20057;-60
2022/12/24 07:10:16;;;;;;;4.10;1.23;;;11.60;82.60;;;;;;4982598;28;20109;-60
2022/12/24 07:12:43;;;;;;;4.55;1.00;;;11.60;82.40;;;;;;4981040;28;20526;-62
2022/12/24 07:15:09;;;;;;;5.13;1.00;;;11.60;82.70;;;;;;4982284;28;20304;-59
2022/12/24 07:17:35;;;;;;;4.20;1.00;;;11.60;82.70;;;;;;4983109;28;20045;-60
2022/12/24 07:20:01;;;;;;;5.93;1.00;;;11.60;82.70;;;;;;4984454;28;20043;-61
2022/12/24 07:22:27;;;;;;;3.80;0.80;;;11.60;82.70;;;;;;4981052;28;20531;-62
2022/12/24 07:24:52;;;;;;;5.53;1.27;;;11.60;82.70;;;;;;4982457;28;20401;-60
2022/12/24 07:27:18;;;;;;;3.80;0.80;;;11.60;82.70;;;;;;4984346;28;20038;-61
2022/12/24 07:29:43;;;;;;;4.60;0.95;;;11.60;82.70;;;;;;4983358;28;20371;-62
2022/12/24 07:32:09;;;;;;;5.53;1.00;;;11.60;83.50;;;;;;4979836;28;20473;-61
2022/12/24 07:34:35;;;;;;;4.50;1.15;;;11.60;82.70;;;;;;4982773;28;20046;-61
2022/12/24 07:37:00;;;;;;;4.25;1.00;;;11.60;82.70;;;;;;4980140;28;20101;-61
2022/12/24 07:39:26;;;;;;;5.47;1.05;;;11.50;82.70;;;;;;4978648;28;20061;-61
2022/12/24 07:41:52;;;;;;;3.78;1.20;;;11.60;82.70;;;;;;4983986;28;20042;-61
2022/12/24 07:44:17;;;;;;;3.38;1.10;;;11.50;82.70;;;;;;4980646;28;20089;-60
2022/12/24 07:46:43;;;;;;;5.10;1.20;;;11.50;82.70;;;;;;4980174;28;20406;-62
2022/12/24 07:49:09;;;;;;;5.22;1.10;;;11.50;82.70;;;;;;4979676;28;20035;-60
2022/12/24 07:51:36;;;;;;;6.18;1.13;;;11.50;82.80;;;;;;4984737;28;20040;-62
2022/12/24 07:54:03;;;;;;;3.95;1.17;;;11.50;82.80;;;;;;4980600;28;20046;-61
2022/12/24 07:56:30;;;;;;;4.63;1.25;;;11.50;82.90;;;;;;4980451;28;20526;-60
2022/12/24 07:58:56;;;;;;;6.18;1.42;;;11.50;82.90;;;;;;4984707;28;20233;-60
2022/12/24 08:01:21;;;;;;;6.82;1.50;;;11.50;82.90;;;;;;4978080;28;20034;-62
2022/12/24 08:03:47;;;;;;;4.60;1.38;;;11.50;82.90;;;;;;4981017;28;20129;-61
2022/12/24 08:06:12;;;;;;;6.05;1.75;;;11.50;82.80;;;;;;4987908;28;20406;-61
2022/12/24 08:08:38;;;;;;;4.65;1.40;;;11.50;82.90;;;;;;4984621;28;20161;-60
2022/12/24 08:11:05;;;;;;;5.57;1.70;;;11.50;82.90;;;;;;4970971;28;20142;-62
2022/12/24 08:13:32;;;;;;;5.57;1.38;;;11.50;83.00;;;;;;4976742;28;20468;-61
2022/12/24 08:15:57;;;;;;;5.13;1.27;;;11.50;83.10;;;;;;4977523;28;20099;-61
2022/12/24 08:18:24;;;;;;;6.47;1.35;;;11.50;83.20;;;;;;4984313;28;20129;-60
2022/12/24 08:20:50;;;;;;;6.68;1.20;;;11.50;83.20;;;;;;4980486;28;20054;-62
2022/12/24 08:23:15;;;;;;;9.02;1.40;;;11.50;83.20;;;;;;4984437;28;20129;-60
2022/12/24 08:25:45;;;;;;;7.07;1.27;;;11.50;83.30;;;;;;4980801;28;20030;-61
2022/12/24 08:28:13;;;;;;;5.45;1.13;;;11.50;83.40;;;;;;4981478;28;20556;-61
2022/12/24 08:30:38;;;;;;;3.53;1.20;;;11.50;83.80;;;;;;4982574;28;20034;-62
2022/12/24 08:33:04;;;;;;;4.45;1.05;;;11.50;84.00;;;;;;4983102;28;20037;-59
2022/12/24 08:35:29;;;;;;;4.45;1.70;;;11.40;84.20;;;;;;4985417;28;20066;-59
2022/12/24 08:37:55;;;;;;;1.55;1.20;;;11.40;84.50;;;;;;4983855;28;20395;-61
2022/12/24 08:40:21;;;;;;;1.30;0.80;;;11.40;84.80;;;;;;4985702;28;20037;-59
2022/12/24 08:42:46;;;;;;;2.15;0.65;;;11.30;84.90;;;;;;4982942;28;20046;-58
2022/12/24 08:45:12;;;;;;;2.92;0.88;;;11.30;85.90;;;;;;4984728;28;20701;-62
2022/12/24 08:47:38;;;;;;;1.45;0.73;;;11.30;85.30;;;;;;4982310;28;20035;-62
2022/12/24 08:50:06;;;;;;;1.65;0.80;;;11.20;85.50;;;;;;4986463;28;20495;-61
2022/12/24 08:52:31;;;;;;;2.40;1.10;;;11.20;85.70;;;;;;4979065;28;20031;-62
2022/12/24 08:54:57;;;;;;;3.15;1.00;;;11.20;85.80;;;;;;4979160;28;20096;-62
2022/12/24 08:57:24;;;;;;;3.28;1.50;;;11.10;85.90;;;;;;4983106;28;20131;-61
2022/12/24 08:59:49;;;;;;;2.20;1.80;;;11.10;85.90;;;;;;4983545;28;20479;-60
2022/12/24 09:02:15;;;;;;;2.00;1.50;;;11.10;86.00;;;;;;4972866;28;20038;-60
2022/12/24 09:04:41;;;;;;;4.45;2.00;;;11.10;86.10;;;;;;4980403;28;20454;-59
2022/12/24 09:07:07;;;;;;;3.38;1.80;;;11.10;86.20;;;;;;4982735;28;21778;-61
2022/12/24 09:09:33;;;;;;;2.58;0.98;;;11.10;86.40;;;;;;4980146;28;20038;-59
2022/12/24 09:11:59;;;;;;;1.77;0.80;;;11.10;86.40;;;;;;4978366;28;20128;-62
2022/12/24 09:14:25;;;;;;;3.72;0.93;;;11.00;86.50;;;;;;4981401;28;20449;-61
2022/12/24 09:16:50;;;;;;;2.53;0.93;;;11.10;86.70;;;;;;4981597;28;20035;-59
2022/12/24 09:19:16;;;;;;;1.95;0.80;;;11.00;86.60;;;;;;4984535;28;20030;-58
2022/12/24 09:21:41;;;;;;;1.95;0.60;;;11.00;86.60;;;;;;4981557;28;20506;-61
2022/12/24 09:24:07;;;;;;;0.80;0.60;;;11.00;86.60;;;;;;4979956;28;20041;-60
2022/12/24 09:26:35;;;;;;;1.55;0.70;;;11.00;86.60;;;;;;4982308;28;20050;-61
2022/12/24 09:29:00;;;;;;;2.33;0.70;;;11.00;86.70;;;;;;4985687;28;20730;-61
2022/12/24 09:31:26;;;;;;;2.35;0.75;;;11.00;86.90;;;;;;4980814;28;20039;-59
2022/12/24 09:33:52;;;;;;;3.80;1.00;;;11.00;86.90;;;;;;4978997;28;20030;-59
2022/12/24 09:36:19;;;;;;;1.27;0.88;;;11.00;86.80;;;;;;4980477;28;20054;-60
2022/12/24 09:38:45;;;;;;;3.10;0.88;;;11.00;86.70;;;;;;4983961;28;21023;-59
2022/12/24 09:41:21;;;;;;;2.65;1.25;;;11.00;86.70;;;;;;4983373;28;20077;-62
2022/12/24 09:43:52;;;;;;;3.05;2.00;;;11.00;87.50;;;;;;4984864;28;20391;-60
2022/12/24 09:46:25;;;;;;;3.67;1.95;;;11.00;86.70;;;;;;4979975;28;20038;-61
2022/12/24 09:48:55;;;;;;;4.00;2.10;;;11.00;86.90;;;;;;4975996;28;20045;-60
2022/12/24 09:51:44;;;;;;;6.75;2.88;;;11.00;86.90;;;;;;4974031;28;20042;-60
2022/12/24 09:54:14;;;;;;;4.90;3.40;;;11.00;87.10;;;;;;4978994;28;20118;-60
2022/12/24 09:56:44;;;;;;;5.22;1.60;;;11.00;86.90;;;;;;4980435;28;20421;-61
2022/12/24 09:59:14;;;;;;;2.97;1.52;;;11.00;86.70;;;;;;4980938;28;20088;-61
2022/12/24 10:01:39;;;;;;;2.55;1.20;;;11.00;86.80;;;;;;4982679;28;20096;-60
2022/12/24 10:04:17;;;;;;;2.35;1.02;;;10.90;86.80;;;;;;4979737;28;20449;-61
2022/12/24 10:06:48;;;;;;;2.35;1.00;;;11.00;86.80;;;;;;4980015;28;20038;-61
2022/12/24 10:09:33;;;;;;;2.05;0.90;;;11.00;86.90;;;;;;4984693;28;20030;-62
2022/12/24 10:12:17;;;;;;;0.80;0.70;;;11.00;86.70;;;;;;4974864;28;20030;-61
2022/12/24 10:15:04;;;;;;;1.98;0.65;;;11.00;86.70;;;;;;4985350;28;20042;-61
2022/12/24 10:17:48;;;;;;;3.00;1.50;;;11.00;86.70;;;;;;4980715;28;20041;-59
2022/12/24 10:20:23;;;;;;;4.18;1.70;;;11.00;86.70;;;;;;4979087;28;20043;-60
2022/12/24 10:23:03;;;;;;;;;;;11.00;86.70;;;;;;4980204;28;20042;-60
2022/12/24 10:25:40;;;;;;;4.38;1.27;;;11.00;86.70;;;;;;4983537;28;19922;-59
2022/12/24 10:28:14;;;;;;;2.38;1.13;;;11.10;86.70;;;;;;4978673;28;20038;-60
2022/12/24 10:30:41;;;;;;;1.98;1.15;;;11.10;86.60;;;;;;4977480;28;20620;-62
2022/12/24 10:33:26;;;;;;;3.60;1.00;;;11.00;86.60;;;;;;4977948;28;20038;-62
2022/12/24 10:35:55;;;;;;;6.85;3.90;;;11.10;86.40;;;;;;4978178;28;20042;-60
2022/12/24 10:38:21;;;;;;;3.50;0.98;;;11.00;86.30;;;;;;4970892;23;20042;-60
2022/12/24 10:40:50;;;;;;;1.98;1.08;;;11.10;86.40;;;;;;4969075;28;20116;-59
2022/12/24 10:43:21;;;;;;;2.72;1.25;;;11.00;86.40;;;;;;4953780;28;20134;-60
2022/12/24 10:45:55;;;;;;;2.92;1.40;;;11.00;86.40;;;;;;4971017;28;20121;-61
2022/12/24 10:48:50;;;;;;;1.45;0.90;;;11.10;86.60;;;;;;4959763;28;20113;-59
2022/12/24 10:51:24;;;;;;;3.53;1.25;;;11.10;86.40;;;;;;4949067;28;20038;-60
2022/12/24 10:54:05;;;;;;;2.80;0.80;;;11.10;86.40;;;;;;4957379;28;20345;-61
2022/12/24 10:56:31;;;;;;;1.23;0.80;;;11.10;86.40;;;;;;4963195;28;20646;-58
2022/12/24 10:58:56;;;;;;;2.60;1.10;;;11.10;86.40;;;;;;4972849;28;20038;-61
2022/12/24 11:01:42;;;;;;;2.20;1.00;;;11.10;86.40;;;;;;4965802;28;20137;-58
2022/12/24 11:04:18;;;;;;;2.30;1.05;;;11.10;86.20;;;;;;4971844;28;20141;-60
2022/12/24 11:07:04;;;;;;;1.48;1.00;;;11.10;86.40;;;;;;4970488;28;20049;-59
2022/12/24 11:09:33;;;;;;;2.92;1.27;;;11.20;86.40;;;;;;4966626;28;20043;-60
2022/12/24 11:12:00;;;;;;;1.77;0.80;;;11.20;86.40;;;;;;4963538;28;20519;-61
2022/12/24 11:14:31;;;;;;;1.73;0.70;;;11.20;86.70;;;;;;4967736;28;20522;-61
2022/12/24 11:16:57;;;;;;;3.25;1.00;;;11.20;86.20;;;;;;4968026;28;20027;-61
2022/12/24 11:19:40;;;;;;;1.88;0.80;;;11.20;86.20;;;;;;4969559;28;20034;-60
2022/12/24 11:22:18;;;;;;;2.03;0.90;;;11.20;86.20;;;;;;4971340;28;20034;-61
2022/12/24 11:24:44;;;;;;;1.95;0.80;;;11.20;86.30;;;;;;4963515;28;20091;-62
2022/12/24 11:27:46;;;;;;;1.45;0.88;;;11.20;86.20;;;;;;4972114;28;20039;-62
2022/12/24 11:30:14;;;;;;;1.27;0.90;;;11.30;86.10;;;;;;4938095;28;20039;-60
2022/12/24 11:32:48;;;;;;;1.90;0.88;;;11.30;86.20;;;;;;4969264;28;20092;-60
2022/12/24 11:35:21;;;;;;;3.40;1.77;;;11.30;86.20;;;;;;4971777;28;20031;-59
2022/12/24 11:38:02;;;;;;;2.78;1.35;;;11.30;86.30;;;;;;4967678;28;20609;-59
2022/12/24 11:40:36;;;;;;;3.10;1.92;;;11.40;86.10;;;;;;4972726;28;20034;-62
2022/12/24 11:43:03;;;;;;;5.43;1.42;;;11.40;86.00;;;;;;4962303;28;20311;-59
2022/12/24 11:45:31;;;;;;;1.25;1.00;;;11.40;86.00;;;;;;4971469;28;20037;-60
2022/12/24 11:47:58;;;;;;;1.73;0.90;;;11.40;85.90;;;;;;4974181;28;20034;-60
2022/12/24 11:50:28;;;;;;;0.90;0.63;;;11.40;85.70;;;;;;4963356;28;20027;-61
2022/12/24 11:53:06;;;;;;;1.30;0.70;;;11.40;85.70;;;;;;4961578;28;20027;-61
2022/12/24 11:55:55;;;;;;;1.65;0.80;;;11.40;85.70;;;;;;4969812;28;20039;-60
2022/12/24 11:58:50;;;;;;;2.42;0.85;;;11.40;85.70;;;;;;4993161;22;21935;-60
2022/12/24 12:01:24;;;;;;;2.85;0.70;;;11.50;85.80;;;;;;5001670;28;20033;-61
2022/12/24 12:04:18;;;;;;;2.03;0.95;;;11.50;85.90;;;;;;4999283;28;20069;-60
2022/12/24 12:06:51;;;;;;;1.40;0.63;;;11.50;85.70;;;;;;4971295;28;20518;-60
2022/12/24 12:09:27;;;;;;;1.83;0.80;;;11.50;85.50;;;;;;4981425;28;20569;-61
2022/12/24 12:11:59;;;;;;;1.40;0.85;;;11.50;85.40;;;;;;4973265;28;20034;-59
2022/12/24 12:14:34;;;;;;;2.00;0.80;;;11.50;85.60;;;;;;4980721;28;20037;-61
2022/12/24 12:17:13;;;;;;;1.02;0.77;;;11.50;85.50;;;;;;4978898;28;20038;-61
2022/12/24 12:19:45;;;;;;;2.45;0.90;;;11.50;85.60;;;;;;4973907;28;20026;-60
2022/12/24 12:22:31;;;;;;;2.35;1.00;;;11.50;85.40;;;;;;4979969;28;20450;-57
2022/12/24 12:24:59;;;;;;;0.98;0.68;;;11.50;85.20;;;;;;4965953;28;20247;-61
2022/12/24 12:27:45;;;;;;;1.20;0.70;;;11.50;85.20;;;;;;4960188;28;20050;-62
2022/12/24 12:30:16;;;;;;;3.08;0.70;;;11.50;85.00;;;;;;4965094;28;20411;-61
2022/12/24 12:33:15;;;;;;;3.10;0.80;;;11.50;84.90;;;;;;4966024;28;20554;-59
2022/12/24 12:35:43;;;;;;;0.65;0.50;;;11.50;84.60;;;;;;4964617;28;21870;-62
2022/12/24 12:38:17;;;;;;;1.25;0.70;;;11.40;84.60;;;;;;4968089;28;20284;-62
2022/12/24 12:41:05;;;;;;;3.15;0.82;;;11.40;84.40;;;;;;4963838;28;20046;-60
2022/12/24 12:43:49;;;;;;;2.17;0.90;;;11.40;84.50;;;;;;4968069;28;20050;-61
2022/12/24 12:46:43;;;;;;;3.42;0.70;;;11.40;84.50;;;;;;4970886;28;20038;-61
2022/12/24 12:49:36;;;;;;;2.25;0.98;;;11.30;84.60;;;;;;4972229;28;20103;-60
2022/12/24 12:52:34;;;;;;;1.42;0.82;;;11.30;84.60;;;;;;4973155;28;20117;-61
2022/12/24 12:55:21;;;;;;;1.85;1.00;;;11.30;84.50;;;;;;4969235;28;20058;-61
2022/12/24 12:57:49;;;;;;;1.33;0.90;;;11.30;84.70;;;;;;4980119;28;20089;-61
2022/12/24 13:00:17;;;;;;;2.22;1.17;;;11.30;85.10;;;;;;4983246;28;20527;-62
2022/12/24 13:03:04;;;;;;;1.20;1.10;;;11.30;85.30;;;;;;4978430;28;20034;-61
2022/12/24 13:05:51;;;;;;;3.15;1.10;;;11.30;85.30;;;;;;4986190;28;20053;-61
2022/12/24 13:08:23;;;;;;;0.88;0.70;;;11.30;85.40;;;;;;4985311;28;20278;-62
2022/12/24 13:11:03;;;;;;;2.35;1.10;;;11.40;85.30;;;;;;4983472;28;20779;-59
2022/12/24 13:13:29;;;;;;;1.58;1.10;;;11.40;85.10;;;;;;4986029;28;20380;-60